Time;durP1;ratioP1;P1;durP2;ratioP2;P2;SDS_P1;SDS_P2;PMS_P1;PMS_P2;Temp;Humidity;BMP_temperature;BMP_pressure;BME280_temperature;BME280_humidity;BME280_pressure;Samples;Min_cycle;Max_cycle;Signal;HPM_P1;HPM_P2
2023/12/02 00:00:06;;;;;;;13.38;3.10;;;19.60;1.00;;;;;;5004078;28;20041;-76
2023/12/02 00:02:39;;;;;;;18.65;3.28;;;19.60;1.00;;;;;;5000142;28;20053;-75
2023/12/02 00:05:08;;;;;;;11.80;2.95;;;19.60;1.00;;;;;;5004510;28;20038;-76
2023/12/02 00:07:36;;;;;;;12.90;3.00;;;19.40;1.00;;;;;;5003477;28;20034;-76
2023/12/02 00:10:05;;;;;;;10.45;2.78;;;19.40;1.00;;;;;;5000964;28;20046;-77
2023/12/02 00:12:34;;;;;;;10.00;2.65;;;19.30;1.00;;;;;;5001697;28;20591;-76
2023/12/02 00:15:01;;;;;;;13.13;2.60;;;19.30;1.00;;;;;;5012983;28;20042;-78
2023/12/02 00:17:29;;;;;;;11.55;2.50;;;19.30;1.00;;;;;;5015347;28;20047;-76
2023/12/02 00:19:56;;;;;;;10.68;2.30;;;19.30;1.00;;;;;;5000600;28;20038;-76
2023/12/02 00:22:24;;;;;;;14.85;3.40;;;19.40;1.00;;;;;;5000221;28;20062;-77
2023/12/02 00:24:52;;;;;;;10.27;2.45;;;19.20;1.00;;;;;;5002245;28;20397;-76
2023/12/02 00:27:20;;;;;;;11.60;2.70;;;19.20;1.00;;;;;;5001022;28;20125;-75
2023/12/02 00:29:49;;;;;;;8.48;3.05;;;19.20;1.00;;;;;;5001454;28;20096;-76
2023/12/02 00:32:17;;;;;;;12.73;2.70;;;19.20;1.00;;;;;;4982015;28;20050;-77
2023/12/02 00:34:44;;;;;;;11.38;2.20;;;19.20;1.00;;;;;;5007130;28;20365;-77
2023/12/02 00:37:13;;;;;;;12.88;2.30;;;19.20;1.00;;;;;;5006099;28;20042;-78
2023/12/02 00:39:40;;;;;;;11.00;2.38;;;19.20;1.00;;;;;;4997291;28;20042;-76
2023/12/02 00:42:08;;;;;;;12.60;2.83;;;19.10;1.00;;;;;;5002480;28;20038;-78
2023/12/02 00:44:35;;;;;;;9.73;2.17;;;19.00;1.00;;;;;;5000231;28;20121;-75
2023/12/02 00:47:05;;;;;;;13.80;3.10;;;18.90;1.00;;;;;;4999863;28;20045;-76
2023/12/02 00:49:33;;;;;;;10.32;2.40;;;18.90;1.00;;;;;;4982269;28;20042;-76
2023/12/02 00:52:01;;;;;;;13.35;2.83;;;18.90;1.00;;;;;;5000081;28;20042;-75
2023/12/02 00:54:28;;;;;;;9.57;2.33;;;18.90;1.00;;;;;;4980036;28;20038;-78
2023/12/02 00:56:56;;;;;;;11.40;2.53;;;18.80;1.00;;;;;;4986522;28;20077;-77
2023/12/02 00:59:23;;;;;;;12.25;3.42;;;18.80;1.00;;;;;;4997797;28;20477;-76
2023/12/02 01:01:51;;;;;;;14.40;2.85;;;18.80;1.00;;;;;;5003132;28;20132;-77
2023/12/02 01:04:20;;;;;;;13.15;3.30;;;18.70;1.00;;;;;;4999027;28;20045;-77
2023/12/02 01:06:48;;;;;;;11.73;2.92;;;18.70;1.00;;;;;;4982417;28;20090;-78
2023/12/02 01:09:15;;;;;;;12.38;2.58;;;18.60;1.00;;;;;;5001004;28;20066;-76
2023/12/02 01:11:43;;;;;;;15.93;2.67;;;18.60;1.00;;;;;;4999147;28;20038;-76
2023/12/02 01:14:10;;;;;;;14.52;4.22;;;18.50;1.00;;;;;;4999286;28;20037;-75
2023/12/02 01:16:38;;;;;;;13.77;4.47;;;18.40;1.00;;;;;;4998196;28;20037;-75
2023/12/02 01:19:05;;;;;;;13.43;4.43;;;18.30;1.00;;;;;;4998355;28;20049;-75
2023/12/02 01:21:34;;;;;;;11.30;3.08;;;18.20;1.00;;;;;;4998702;28;20125;-76
2023/12/02 01:24:02;;;;;;;10.85;3.50;;;18.10;1.00;;;;;;5000521;28;20077;-75
2023/12/02 01:26:29;;;;;;;15.93;3.85;;;18.00;1.00;;;;;;4982363;28;20046;-75
2023/12/02 01:28:58;;;;;;;9.68;3.95;;;17.90;1.00;;;;;;4999275;28;20494;-76
2023/12/02 01:31:25;;;;;;;13.50;4.40;;;17.80;1.00;;;;;;4999969;28;20081;-76
2023/12/02 01:33:53;;;;;;;14.32;4.50;;;17.80;1.00;;;;;;5000203;28;20565;-78
2023/12/02 01:36:20;;;;;;;18.15;4.35;;;17.70;1.00;;;;;;4982758;28;20084;-77
2023/12/02 01:38:50;;;;;;;12.27;4.57;;;17.70;1.00;;;;;;4983975;28;20183;-76
2023/12/02 01:41:17;;;;;;;11.23;3.88;;;17.60;1.00;;;;;;4998082;28;20050;-77
2023/12/02 01:43:46;;;;;;;15.48;3.45;;;17.70;1.00;;;;;;5002630;28;20120;-77
2023/12/02 01:46:15;;;;;;;14.88;3.95;;;17.70;1.00;;;;;;4998816;28;20520;-75
2023/12/02 01:48:44;;;;;;;15.95;4.10;;;17.70;1.00;;;;;;4997320;28;20065;-78
2023/12/02 01:51:12;;;;;;;12.75;3.38;;;17.80;1.00;;;;;;4982099;28;20046;-76
2023/12/02 01:53:40;;;;;;;12.75;3.72;;;17.90;1.00;;;;;;4999113;28;20037;-76
2023/12/02 01:56:10;;;;;;;14.52;3.45;;;18.10;1.00;;;;;;5001348;28;20049;-77
2023/12/02 01:58:38;;;;;;;15.23;2.83;;;18.30;1.00;;;;;;4998759;28;20042;-75
2023/12/02 02:01:06;;;;;;;17.42;3.47;;;18.30;1.00;;;;;;4998251;28;20100;-75
2023/12/02 02:03:33;;;;;;;17.08;3.47;;;18.30;1.00;;;;;;4999692;28;20066;-77
2023/12/02 02:06:01;;;;;;;13.90;2.70;;;18.30;1.00;;;;;;4996733;28;20046;-76
2023/12/02 02:08:29;;;;;;;12.70;2.80;;;18.20;1.00;;;;;;4997366;28;20046;-76
2023/12/02 02:10:58;;;;;;;14.85;3.15;;;18.40;1.00;;;;;;4982916;28;20490;-77
2023/12/02 02:13:27;;;;;;;12.80;3.20;;;18.50;1.00;;;;;;4999646;28;20042;-76
2023/12/02 02:15:55;;;;;;;13.15;3.03;;;18.60;1.00;;;;;;5010349;28;20100;-77
2023/12/02 02:18:23;;;;;;;17.20;6.70;;;18.60;1.00;;;;;;5016810;28;20034;-77
2023/12/02 02:20:51;;;;;;;12.55;4.20;;;18.80;1.00;;;;;;5014286;28;20483;-77
2023/12/02 02:23:21;;;;;;;17.10;5.47;;;18.80;1.00;;;;;;5013898;28;20463;-76
2023/12/02 02:25:52;;;;;;;14.93;3.42;;;18.80;1.00;;;;;;5018117;28;20042;-77
2023/12/02 02:28:22;;;;;;;15.63;2.92;;;18.80;1.00;;;;;;5015469;28;20043;-78
2023/12/02 02:30:50;;;;;;;10.30;2.70;;;19.00;1.00;;;;;;5005931;28;20106;-77
2023/12/02 02:33:18;;;;;;;13.57;2.88;;;18.90;1.00;;;;;;4987697;28;20054;-76
2023/12/02 02:35:47;;;;;;;15.05;3.63;;;18.90;1.00;;;;;;5003802;28;20042;-76
2023/12/02 02:38:15;;;;;;;15.65;3.10;;;18.90;1.00;;;;;;4987861;28;20072;-77
2023/12/02 02:40:44;;;;;;;16.80;3.25;;;19.00;1.00;;;;;;5002321;28;20046;-76
2023/12/02 02:43:12;;;;;;;11.57;3.40;;;19.00;1.00;;;;;;5000995;28;20038;-76
2023/12/02 02:45:39;;;;;;;17.58;3.00;;;18.90;1.00;;;;;;4987355;28;20498;-77
2023/12/02 02:48:08;;;;;;;13.27;2.85;;;18.80;1.00;;;;;;5003124;28;20042;-78
2023/12/02 02:50:36;;;;;;;14.55;3.20;;;18.80;1.00;;;;;;5001904;28;20112;-75
2023/12/02 02:53:03;;;;;;;12.32;2.80;;;18.60;1.00;;;;;;4983316;28;20134;-77
2023/12/02 02:55:31;;;;;;;18.30;3.20;;;18.50;1.00;;;;;;5001636;28;20034;-80
2023/12/02 02:58:00;;;;;;;17.40;3.30;;;18.40;1.00;;;;;;5001164;28;20049;-79
2023/12/02 03:00:27;;;;;;;14.40;2.75;;;18.30;1.00;;;;;;5010884;28;20046;-76
2023/12/02 03:02:55;;;;;;;9.50;2.60;;;18.20;1.00;;;;;;5008515;28;20046;-77
2023/12/02 03:05:23;;;;;;;12.07;4.05;;;18.20;1.00;;;;;;4998267;28;20133;-76
2023/12/02 03:07:50;;;;;;;13.70;3.35;;;18.20;1.00;;;;;;5012047;28;20043;-75
2023/12/02 03:10:18;;;;;;;17.83;3.83;;;18.10;1.00;;;;;;5001743;28;20100;-77
2023/12/02 03:12:45;;;;;;;11.23;4.22;;;18.10;1.00;;;;;;5001151;28;20081;-76
2023/12/02 03:15:14;;;;;;;19.63;4.95;;;18.00;1.00;;;;;;4984321;28;20054;-76
2023/12/02 03:17:42;;;;;;;16.60;4.72;;;18.00;1.00;;;;;;5005592;28;20149;-76
2023/12/02 03:20:10;;;;;;;15.35;4.25;;;17.80;1.00;;;;;;5004341;28;20042;-77
2023/12/02 03:22:38;;;;;;;15.98;5.15;;;17.70;1.00;;;;;;5003979;28;20046;-75
2023/12/02 03:25:06;;;;;;;16.40;4.90;;;17.60;1.00;;;;;;5004696;28;20065;-75
2023/12/02 03:27:34;;;;;;;19.40;4.68;;;17.60;1.00;;;;;;4981805;28;20046;-75
2023/12/02 03:30:01;;;;;;;14.10;3.75;;;17.50;1.00;;;;;;5000919;28;20137;-76
2023/12/02 03:32:31;;;;;;;14.77;3.85;;;17.50;1.00;;;;;;5001007;28;20049;-77
2023/12/02 03:34:58;;;;;;;14.95;3.78;;;17.60;1.00;;;;;;5003712;28;20056;-77
2023/12/02 03:37:26;;;;;;;15.48;4.28;;;17.70;1.00;;;;;;4983183;28;20053;-75
2023/12/02 03:39:53;;;;;;;19.70;4.13;;;17.60;1.00;;;;;;5005976;28;20069;-75
2023/12/02 03:42:21;;;;;;;16.63;4.30;;;17.50;1.00;;;;;;5002830;28;20065;-77
2023/12/02 03:44:48;;;;;;;14.63;4.30;;;17.40;1.00;;;;;;5000876;28;20058;-77
2023/12/02 03:47:16;;;;;;;12.93;4.78;;;17.40;1.00;;;;;;4997296;28;20050;-77
2023/12/02 03:49:45;;;;;;;14.65;3.60;;;17.30;1.00;;;;;;4986395;28;20390;-77
2023/12/02 03:52:12;;;;;;;17.20;5.70;;;17.50;1.00;;;;;;5004123;28;20050;-76
2023/12/02 03:54:40;;;;;;;14.93;3.80;;;17.40;1.00;;;;;;5001282;28;20504;-77
2023/12/02 03:57:08;;;;;;;15.00;4.03;;;17.30;1.00;;;;;;5001675;28;20042;-78
2023/12/02 03:59:36;;;;;;;15.32;4.13;;;17.20;1.00;;;;;;4982771;28;20040;-76
2023/12/02 04:02:03;;;;;;;21.23;5.32;;;17.20;1.00;;;;;;5001153;28;20046;-78
2023/12/02 04:04:31;;;;;;;19.83;3.80;;;17.20;1.00;;;;;;4985736;28;20049;-77
2023/12/02 04:07:00;;;;;;;15.98;3.47;;;17.30;1.00;;;;;;5001477;28;20042;-79
2023/12/02 04:09:28;;;;;;;12.85;3.40;;;17.30;1.00;;;;;;4982463;28;20058;-77
2023/12/02 04:11:55;;;;;;;12.43;3.35;;;17.70;1.00;;;;;;5002512;28;20044;-76
2023/12/02 04:14:23;;;;;;;15.25;3.58;;;17.80;1.00;;;;;;4982993;28;20054;-76
2023/12/02 04:16:50;;;;;;;14.63;3.45;;;17.70;1.00;;;;;;5001270;28;20042;-76
2023/12/02 04:19:22;;;;;;;10.98;3.00;;;17.60;1.00;;;;;;5004498;28;20058;-77
2023/12/02 04:21:49;;;;;;;14.80;4.97;;;17.40;1.00;;;;;;5003910;28;20073;-77
2023/12/02 04:24:18;;;;;;;13.63;4.32;;;17.40;1.00;;;;;;5003682;28;20053;-78
2023/12/02 04:26:46;;;;;;;21.92;4.82;;;17.20;1.00;;;;;;4984286;28;20043;-76
2023/12/02 04:29:14;;;;;;;15.75;4.72;;;17.10;1.00;;;;;;4987852;28;20590;-77
2023/12/02 04:31:42;;;;;;;15.07;5.00;;;16.90;1.00;;;;;;4997996;28;20031;-76
2023/12/02 04:34:09;;;;;;;18.40;4.93;;;16.70;1.00;;;;;;4984334;28;20117;-77
2023/12/02 04:36:37;;;;;;;16.90;4.65;;;16.50;1.00;;;;;;4983392;28;20046;-77
2023/12/02 04:39:05;;;;;;;17.45;5.65;;;16.50;1.00;;;;;;4981569;28;20042;-76
2023/12/02 04:41:34;;;;;;;20.35;6.03;;;16.30;1.00;;;;;;4973935;28;20484;-76
2023/12/02 04:44:03;;;;;;;16.98;5.50;;;16.20;1.00;;;;;;4974584;28;20039;-77
2023/12/02 04:46:33;;;;;;;18.85;6.53;;;16.10;1.00;;;;;;4978722;28;20491;-76
2023/12/02 04:49:03;;;;;;;18.23;7.18;;;16.00;1.00;;;;;;4979037;28;20101;-76
2023/12/02 04:51:31;;;;;;;20.92;7.68;;;15.90;1.00;;;;;;4982559;28;20066;-78
2023/12/02 04:53:58;;;;;;;21.65;6.82;;;15.90;1.00;;;;;;4980119;28;20046;-77
2023/12/02 04:56:26;;;;;;;20.33;7.38;;;15.90;1.00;;;;;;4995831;28;20046;-77
2023/12/02 04:58:55;;;;;;;25.98;7.75;;;15.80;1.00;;;;;;4991487;28;20050;-78
2023/12/02 05:01:22;;;;;;;20.60;7.45;;;15.80;1.00;;;;;;4992886;28;20073;-77
2023/12/02 05:03:50;;;;;;;22.15;7.93;;;15.80;1.00;;;;;;5005819;28;20031;-78
2023/12/02 05:06:17;;;;;;;30.77;9.07;;;15.70;1.00;;;;;;4987190;28;20113;-76
2023/12/02 05:08:45;;;;;;;24.98;7.95;;;15.70;1.00;;;;;;4981149;28;20082;-75
2023/12/02 05:11:18;;;;;;;24.67;9.05;;;15.70;1.00;;;;;;4992799;28;20114;-77
2023/12/02 05:13:46;;;;;;;25.50;10.00;;;15.80;1.00;;;;;;4978542;28;20045;-75
2023/12/02 05:16:16;;;;;;;27.85;12.10;;;15.70;1.00;;;;;;4977921;28;20046;-77
2023/12/02 05:18:43;;;;;;;29.70;11.10;;;15.60;1.00;;;;;;4983260;28;20050;-76
2023/12/02 05:21:11;;;;;;;20.75;7.55;;;15.60;1.00;;;;;;4982752;28;20073;-76
2023/12/02 05:23:39;;;;;;;17.13;6.60;;;15.40;1.00;;;;;;4999685;28;20040;-77
2023/12/02 05:26:08;;;;;;;22.75;7.18;;;15.40;1.00;;;;;;5014953;28;20046;-78
2023/12/02 05:28:35;;;;;;;24.95;9.82;;;15.50;1.00;;;;;;5019563;28;20049;-77
2023/12/02 05:31:03;;;;;;;20.95;8.43;;;15.50;1.00;;;;;;5003656;28;20061;-77
2023/12/02 05:33:32;;;;;;;28.63;11.32;;;15.50;1.00;;;;;;5020556;28;20057;-77
2023/12/02 05:35:59;;;;;;;28.83;13.55;;;15.50;1.00;;;;;;5020308;28;20069;-77
2023/12/02 05:38:27;;;;;;;29.08;12.38;;;15.40;1.00;;;;;;5010848;28;20042;-80
2023/12/02 05:40:54;;;;;;;28.55;11.73;;;15.30;1.00;;;;;;4998941;28;20069;-76
2023/12/02 05:43:22;;;;;;;27.58;12.50;;;15.30;1.00;;;;;;5002397;28;20062;-77
2023/12/02 05:45:49;;;;;;;29.35;11.85;;;15.20;1.00;;;;;;5022630;28;20057;-80
2023/12/02 05:48:17;;;;;;;26.38;12.30;;;15.30;1.00;;;;;;5017322;28;20072;-78
2023/12/02 05:50:46;;;;;;;25.67;11.75;;;15.20;1.00;;;;;;4998821;28;20061;-77
2023/12/02 05:53:15;;;;;;;22.70;10.55;;;15.10;1.00;;;;;;5015466;28;20101;-76
2023/12/02 05:55:43;;;;;;;27.67;11.75;;;15.00;1.00;;;;;;4999996;28;20042;-77
2023/12/02 05:58:12;;;;;;;27.50;9.32;;;14.90;1.00;;;;;;5000134;28;20046;-76
2023/12/02 06:00:40;;;;;;;29.02;11.07;;;15.00;1.00;;;;;;5000595;28;20042;-77
2023/12/02 06:03:08;;;;;;;28.42;11.90;;;15.20;1.00;;;;;;5001193;28;20065;-78
2023/12/02 06:05:35;;;;;;;26.80;11.95;;;15.20;1.00;;;;;;4997612;28;20034;-76
2023/12/02 06:08:05;;;;;;;25.38;9.73;;;15.10;1.00;;;;;;5002772;28;20559;-77
2023/12/02 06:10:32;;;;;;;28.50;10.13;;;15.20;1.00;;;;;;5015554;28;20057;-77
2023/12/02 06:13:00;;;;;;;28.50;8.77;;;15.30;1.00;;;;;;5009222;28;20054;-77
2023/12/02 06:15:27;;;;;;;22.83;7.22;;;15.50;1.00;;;;;;5010610;28;20124;-76
2023/12/02 06:17:56;;;;;;;21.48;8.15;;;15.70;1.00;;;;;;5004281;28;20052;-76
2023/12/02 06:20:25;;;;;;;22.65;6.65;;;15.80;1.00;;;;;;5005041;28;20046;-76
2023/12/02 06:22:52;;;;;;;23.63;7.88;;;16.00;1.00;;;;;;5003633;28;20046;-78
2023/12/02 06:25:21;;;;;;;22.65;6.60;;;16.30;1.00;;;;;;5003082;28;20042;-76
2023/12/02 06:27:49;;;;;;;28.02;6.43;;;16.40;1.00;;;;;;5000299;28;20068;-78
2023/12/02 06:30:17;;;;;;;22.80;5.78;;;16.70;1.00;;;;;;5002300;28;20495;-77
2023/12/02 06:32:45;;;;;;;21.63;5.00;;;17.10;1.00;;;;;;5004800;28;21109;-78
2023/12/02 06:35:22;;;;;;;21.02;5.22;;;17.40;1.00;;;;;;5000935;28;20038;-78
2023/12/02 06:37:49;;;;;;;24.67;5.15;;;17.60;1.00;;;;;;5004470;28;20486;-76
2023/12/02 06:40:24;;;;;;;20.17;4.35;;;17.80;1.00;;;;;;5004608;28;20045;-77
2023/12/02 06:42:51;;;;;;;23.67;5.10;;;18.00;1.00;;;;;;4983616;28;20434;-75
2023/12/02 06:45:20;;;;;;;19.92;4.40;;;18.10;1.00;;;;;;5004431;28;20510;-78
2023/12/02 06:47:50;;;;;;;27.23;4.15;;;18.20;1.00;;;;;;5002704;28;20521;-77
2023/12/02 06:50:18;;;;;;;27.20;5.25;;;18.20;1.00;;;;;;5002642;28;20045;-78
2023/12/02 06:52:50;;;;;;;26.75;5.50;;;18.30;1.00;;;;;;4987926;28;20406;-76
2023/12/02 06:55:18;;;;;;;24.48;4.30;;;18.40;1.00;;;;;;4979089;28;20049;-81
2023/12/02 06:57:47;;;;;;;22.52;4.65;;;18.50;1.00;;;;;;5004439;28;20045;-80
2023/12/02 07:00:51;;;;;;;;;;;;;;;;;;;;;
2023/12/02 07:06:29;;;;;;;22.88;4.80;;;18.40;1.00;;;;;;4986303;28;20049;-79
2023/12/02 07:09:00;;;;;;;25.60;4.97;;;18.40;1.00;;;;;;4996025;28;20035;-78
2023/12/02 07:15:17;;;;;;;22.05;5.13;;;18.50;1.00;;;;;;4938773;29;20136;-80
2023/12/02 07:18:06;;;;;;;26.08;7.22;;;18.50;1.00;;;;;;4923034;29;20114;-80
2023/12/02 07:30:54;;;;;;;20.88;6.10;;;18.90;1.00;;;;;;4914156;29;20083;-78
2023/12/02 07:33:22;;;;;;;37.72;8.80;;;19.00;1.00;;;;;;4924345;29;20055;-75
2023/12/02 07:35:50;;;;;;;29.33;12.15;;;19.20;1.00;;;;;;4921799;29;20055;-76
2023/12/02 07:38:18;;;;;;;24.02;6.75;;;19.30;1.00;;;;;;4936709;28;20050;-75
2023/12/02 07:40:46;;;;;;;20.60;5.55;;;19.60;1.00;;;;;;4991979;28;20039;-77
2023/12/02 07:43:13;;;;;;;22.65;5.85;;;19.90;1.00;;;;;;4985061;28;20038;-77
2023/12/02 07:45:41;;;;;;;39.83;12.88;;;20.10;1.00;;;;;;4989868;28;20031;-76
2023/12/02 07:48:11;;;;;;;25.25;6.55;;;20.30;1.00;;;;;;4978482;28;20069;-77
2023/12/02 07:50:39;;;;;;;33.70;16.08;;;20.50;1.00;;;;;;4965201;28;20042;-78
2023/12/02 07:53:07;;;;;;;26.40;7.47;;;20.70;1.00;;;;;;4982543;28;20035;-79
2023/12/02 07:55:35;;;;;;;29.00;7.28;;;21.00;1.00;;;;;;4962781;28;20078;-77
2023/12/02 07:58:02;;;;;;;28.17;8.80;;;21.10;1.00;;;;;;4982154;28;20173;-79
2023/12/02 08:00:30;;;;;;;29.02;11.20;;;21.10;1.00;;;;;;4983821;28;20049;-78
2023/12/02 08:02:57;;;;;;;23.60;7.72;;;21.30;1.00;;;;;;4986313;28;20053;-76
2023/12/02 08:05:27;;;;;;;35.88;12.98;;;21.40;1.00;;;;;;4989713;28;20126;-78
2023/12/02 08:07:55;;;;;;;28.35;7.93;;;21.40;1.00;;;;;;4998522;28;20093;-77
2023/12/02 08:10:22;;;;;;;30.27;6.20;;;21.10;1.00;;;;;;5003382;28;20376;-77
2023/12/02 08:12:51;;;;;;;32.25;6.40;;;21.20;1.00;;;;;;4991579;28;20074;-76
2023/12/02 08:15:19;;;;;;;25.80;6.70;;;21.20;1.00;;;;;;4982152;28;20062;-76
2023/12/02 08:17:47;;;;;;;20.58;6.70;;;21.40;1.00;;;;;;4982023;28;20034;-77
2023/12/02 08:20:14;;;;;;;28.63;5.63;;;21.50;1.00;;;;;;4962150;28;20602;-76
2023/12/02 08:22:43;;;;;;;28.50;6.53;;;21.60;1.00;;;;;;4980841;28;20489;-77
2023/12/02 08:25:11;;;;;;;24.40;6.40;;;21.70;1.00;;;;;;5000282;28;20467;-76
2023/12/02 08:27:39;;;;;;;28.67;6.38;;;21.80;1.00;;;;;;4981694;28;20051;-74
2023/12/02 08:30:08;;;;;;;25.13;6.03;;;21.80;1.00;;;;;;4997839;28;20410;-77
2023/12/02 08:32:36;;;;;;;32.80;7.05;;;22.00;1.00;;;;;;4981031;28;20065;-76
2023/12/02 08:35:03;;;;;;;29.65;5.55;;;22.10;1.00;;;;;;4999048;28;20056;-77
2023/12/02 08:37:31;;;;;;;24.23;6.07;;;22.10;1.00;;;;;;4980253;28;20057;-76
2023/12/02 08:40:01;;;;;;;30.35;6.13;;;22.20;1.00;;;;;;5003690;28;20046;-75
2023/12/02 08:42:32;;;;;;;30.77;6.68;;;22.20;1.00;;;;;;4974542;28;20042;-77
2023/12/02 08:45:02;;;;;;;25.08;5.75;;;22.20;1.00;;;;;;5003400;28;20089;-77
2023/12/02 08:47:31;;;;;;;32.25;7.40;;;22.20;1.00;;;;;;5009667;28;20034;-75
2023/12/02 08:49:59;;;;;;;30.55;6.18;;;22.10;1.00;;;;;;5000765;28;20474;-77
2023/12/02 08:52:26;;;;;;;35.50;7.82;;;22.30;1.00;;;;;;4998996;28;20039;-78
2023/12/02 08:54:54;;;;;;;39.35;6.55;;;22.40;1.00;;;;;;5000012;28;20046;-77
2023/12/02 08:57:23;;;;;;;35.03;6.50;;;22.50;1.00;;;;;;5002696;28;20475;-78
2023/12/02 08:59:50;;;;;;;39.53;8.80;;;22.60;1.00;;;;;;5001770;28;20097;-76
2023/12/02 09:02:19;;;;;;;34.22;9.05;;;22.60;1.00;;;;;;4998216;28;20046;-76
2023/12/02 09:04:47;;;;;;;39.10;9.15;;;22.60;1.00;;;;;;4981473;28;20056;-76
2023/12/02 09:07:15;;;;;;;35.58;8.25;;;22.70;1.00;;;;;;4999419;28;20097;-78
2023/12/02 09:09:43;;;;;;;33.63;7.10;;;22.70;1.00;;;;;;4998417;28;20045;-78
2023/12/02 09:12:10;;;;;;;42.38;9.48;;;22.90;1.00;;;;;;4997060;28;20042;-77
2023/12/02 09:14:39;;;;;;;29.42;6.40;;;22.80;1.00;;;;;;5000091;28;20046;-77
2023/12/02 09:17:38;;;;;;;35.58;7.88;;;22.90;1.00;;;;;;4999770;28;20115;-75
2023/12/02 09:20:25;;;;;;;39.72;8.20;;;22.90;1.00;;;;;;4997546;28;20457;-78
2023/12/02 09:22:55;;;;;;;34.60;7.40;;;22.90;1.00;;;;;;4981132;28;20308;-76
2023/12/02 09:25:28;;;;;;;35.33;8.70;;;23.00;1.00;;;;;;4981573;28;20042;-76
2023/12/02 09:28:29;;;;;;;39.70;9.65;;;23.00;1.00;;;;;;4981441;28;20043;-75
2023/12/02 09:31:05;;;;;;;27.25;6.72;;;22.90;1.00;;;;;;4889259;29;20097;-76
2023/12/02 09:33:34;;;;;;;46.65;9.30;;;22.90;1.00;;;;;;4887133;29;20052;-78
2023/12/02 09:36:04;;;;;;;34.15;6.72;;;23.00;1.00;;;;;;4881819;29;20060;-81
2023/12/02 09:38:33;;;;;;;39.63;6.13;;;23.00;1.00;;;;;;4868779;29;20476;-78
2023/12/02 09:41:37;;;;;;;32.42;5.72;;;23.10;1.00;;;;;;4884037;29;20073;-75
2023/12/02 09:44:23;;;;;;;38.30;6.72;;;23.10;1.00;;;;;;4885583;29;20150;-81
2023/12/02 09:47:04;;;;;;;36.83;7.78;;;23.20;1.00;;;;;;4893146;29;20049;-80
2023/12/02 09:50:01;;;;;;;41.40;6.30;;;23.30;1.00;;;;;;4886375;29;20048;-76
2023/12/02 09:52:48;;;;;;;32.25;5.63;;;23.30;1.00;;;;;;4866236;29;20045;-75
2023/12/02 09:55:49;;;;;;;35.95;6.40;;;23.30;1.00;;;;;;4884495;29;20117;-77
2023/12/02 09:58:22;;;;;;;36.90;6.10;;;23.20;1.00;;;;;;4880780;29;20064;-77
2023/12/02 10:00:54;;;;;;;37.10;6.13;;;23.10;1.00;;;;;;4880268;28;20446;-75
2023/12/02 10:03:54;;;;;;;29.75;5.15;;;23.10;1.00;;;;;;4993664;28;20221;-76
2023/12/02 10:06:34;;;;;;;34.17;5.82;;;23.10;1.00;;;;;;4986281;28;20046;-78
2023/12/02 10:09:11;;;;;;;38.47;5.97;;;23.10;1.00;;;;;;4979587;28;20050;-78
2023/12/02 10:11:45;;;;;;;32.55;5.90;;;23.20;1.00;;;;;;4982943;28;20043;-78
2023/12/02 10:14:14;;;;;;;38.05;7.20;;;23.20;1.00;;;;;;4979466;28;20043;-77
2023/12/02 10:16:43;;;;;;;37.15;7.03;;;23.20;1.00;;;;;;4984145;28;20490;-76
2023/12/02 10:19:21;;;;;;;48.35;6.18;;;23.20;1.00;;;;;;4985232;28;20051;-76
2023/12/02 10:21:54;;;;;;;46.55;7.13;;;23.10;1.00;;;;;;4998592;28;20047;-78
2023/12/02 10:24:44;;;;;;;31.88;5.38;;;22.90;1.00;;;;;;4990762;28;20062;-81
2023/12/02 10:27:18;;;;;;;31.27;5.95;;;22.80;1.00;;;;;;5021641;28;20043;-78
2023/12/02 10:30:09;;;;;;;49.63;6.78;;;22.80;1.00;;;;;;5011174;28;20157;-80
2023/12/02 10:32:55;;;;;;;49.22;7.72;;;22.80;1.00;;;;;;4978565;28;20051;-77
2023/12/02 10:35:44;;;;;;;38.83;7.07;;;22.80;1.00;;;;;;5005666;28;20053;-81
2023/12/02 10:38:18;;;;;;;45.83;8.88;;;22.80;1.00;;;;;;5000889;28;20053;-78
2023/12/02 10:40:51;;;;;;;32.20;7.82;;;22.80;1.00;;;;;;5000896;28;20042;-76
2023/12/02 10:43:27;;;;;;;35.13;7.43;;;22.70;1.00;;;;;;4979998;28;20116;-75
2023/12/02 10:45:55;;;;;;;51.08;7.20;;;22.70;1.00;;;;;;5000553;28;20077;-75
2023/12/02 10:48:23;;;;;;;38.13;6.97;;;22.80;1.00;;;;;;5001306;28;20042;-76
2023/12/02 10:50:53;;;;;;;38.67;6.70;;;22.80;1.00;;;;;;4999296;28;20050;-77
2023/12/02 10:53:22;;;;;;;39.90;6.88;;;22.80;1.00;;;;;;5000901;28;20077;-78
2023/12/02 10:56:10;;;;;;;;;;;;;;;;;;;;;
2023/12/02 10:58:44;;;;;;;42.25;8.20;;;22.70;1.00;;;;;;4989090;28;20145;-77
2023/12/02 11:01:13;;;;;;;42.13;6.75;;;22.80;1.00;;;;;;5002384;28;20034;-76
2023/12/02 11:03:51;;;;;;;29.05;5.90;;;22.80;1.00;;;;;;5002228;28;20091;-76
2023/12/02 11:06:29;;;;;;;33.47;6.63;;;22.80;1.00;;;;;;5000840;28;20490;-76
2023/12/02 11:09:04;;;;;;;37.17;6.55;;;22.80;1.00;;;;;;5002959;28;20497;-78
2023/12/02 11:11:47;;;;;;;30.60;5.93;;;22.70;1.00;;;;;;4982644;28;20118;-85
2023/12/02 11:14:46;;;;;;;34.38;5.35;;;22.70;1.00;;;;;;4984822;28;20137;-77
2023/12/02 11:17:17;;;;;;;31.98;5.75;;;22.70;1.00;;;;;;4895938;29;20080;-78
2023/12/02 11:20:08;;;;;;;35.85;5.53;;;22.70;1.00;;;;;;4964857;28;20038;-79
2023/12/02 11:23:06;;;;;;;36.80;6.43;;;22.80;1.00;;;;;;5015008;28;20035;-77
2023/12/02 11:25:48;;;;;;;26.58;5.43;;;22.80;1.00;;;;;;5002702;28;20117;-80
2023/12/02 11:28:23;;;;;;;41.40;7.03;;;22.70;1.00;;;;;;5019389;28;20038;-79
2023/12/02 11:31:13;;;;;;;33.97;5.73;;;22.50;1.00;;;;;;5008326;28;20510;-78
2023/12/02 11:33:51;;;;;;;32.22;5.15;;;22.40;1.00;;;;;;5000251;28;20314;-82
2023/12/02 11:36:27;;;;;;;25.42;5.30;;;22.40;1.00;;;;;;5010578;28;20046;-83
2023/12/02 11:39:05;;;;;;;34.40;6.47;;;22.40;1.00;;;;;;5008004;28;20066;-79
2023/12/02 11:41:41;;;;;;;29.80;5.50;;;22.40;1.00;;;;;;5001672;28;20109;-77
2023/12/02 11:44:18;;;;;;;22.95;5.75;;;22.30;1.00;;;;;;4985701;28;20061;-76
2023/12/02 11:46:59;;;;;;;26.15;5.82;;;22.50;1.00;;;;;;5008043;28;20050;-78
2023/12/02 11:49:37;;;;;;;31.45;6.18;;;22.50;1.00;;;;;;4987674;28;20046;-77
2023/12/02 11:52:13;;;;;;;26.77;5.90;;;22.60;1.00;;;;;;4987037;28;20677;-80
2023/12/02 11:54:57;;;;;;;28.60;5.22;;;22.60;1.00;;;;;;5003388;28;20046;-76
2023/12/02 11:57:40;;;;;;;26.67;5.05;;;22.50;1.00;;;;;;5001488;28;20037;-76
2023/12/02 12:00:09;;;;;;;22.10;5.22;;;22.50;1.00;;;;;;4983900;28;20042;-78
2023/12/02 12:03:01;;;;;;;30.20;5.15;;;22.40;1.00;;;;;;4999976;28;20045;-79
2023/12/02 12:05:41;;;;;;;32.90;5.43;;;22.30;1.00;;;;;;5001318;28;20128;-76
2023/12/02 12:08:18;;;;;;;29.80;6.05;;;22.30;1.00;;;;;;5003195;28;20045;-78
2023/12/02 12:10:49;;;;;;;22.77;4.38;;;22.10;1.00;;;;;;5002805;28;20038;-78
2023/12/02 12:13:21;;;;;;;24.05;5.32;;;22.10;1.00;;;;;;5001431;28;20038;-79
2023/12/02 12:15:51;;;;;;;26.63;4.88;;;22.10;1.00;;;;;;5005983;28;20042;-79
2023/12/02 12:18:20;;;;;;;27.00;4.82;;;22.00;1.00;;;;;;5003813;28;20042;-79
2023/12/02 12:20:55;;;;;;;22.23;3.97;;;21.90;1.00;;;;;;4984108;28;20519;-76
2023/12/02 12:23:24;;;;;;;27.83;5.00;;;21.90;1.00;;;;;;4996166;28;20065;-79
2023/12/02 12:25:53;;;;;;;34.30;5.97;;;21.90;1.00;;;;;;5005823;28;20535;-79
2023/12/02 12:28:21;;;;;;;27.10;5.22;;;21.80;1.00;;;;;;5003559;28;20039;-76
2023/12/02 12:30:50;;;;;;;31.15;5.10;;;21.80;1.00;;;;;;4983562;28;20502;-76
2023/12/02 12:33:19;;;;;;;27.15;4.65;;;21.80;1.00;;;;;;5000802;28;20088;-77
2023/12/02 12:35:48;;;;;;;26.75;5.50;;;21.80;1.00;;;;;;4983089;28;20410;-76
2023/12/02 12:38:35;;;;;;;27.38;6.05;;;21.80;1.00;;;;;;5007204;28;20064;-77
2023/12/02 12:41:10;;;;;;;21.27;4.57;;;21.90;1.00;;;;;;4978098;28;20371;-76
2023/12/02 12:43:58;;;;;;;19.95;5.03;;;22.00;1.00;;;;;;4972139;28;20043;-76
2023/12/02 12:46:28;;;;;;;29.08;5.45;;;22.00;1.00;;;;;;4984509;28;20112;-79
2023/12/02 12:48:57;;;;;;;20.10;4.07;;;22.00;1.00;;;;;;4982088;28;20074;-80
2023/12/02 12:51:24;;;;;;;24.77;4.13;;;22.00;1.00;;;;;;4984687;28;20038;-77
2023/12/02 12:54:00;;;;;;;28.55;5.25;;;22.00;1.00;;;;;;5001243;28;20136;-77
2023/12/02 12:56:39;;;;;;;24.02;4.30;;;21.80;1.00;;;;;;4983369;28;20050;-79
2023/12/02 12:59:09;;;;;;;21.00;4.10;;;21.80;1.00;;;;;;4988037;28;20081;-78
2023/12/02 13:01:43;;;;;;;24.77;5.65;;;21.70;1.00;;;;;;5015540;28;20035;-78
2023/12/02 13:04:25;;;;;;;23.42;4.43;;;21.80;1.00;;;;;;4996065;28;20046;-75
2023/12/02 13:07:02;;;;;;;30.52;4.65;;;21.60;1.00;;;;;;4998562;28;20057;-75
2023/12/02 13:09:32;;;;;;;20.02;3.92;;;21.40;1.00;;;;;;5013291;28;20045;-76
2023/12/02 13:12:13;;;;;;;20.80;3.78;;;21.30;1.00;;;;;;5020386;28;20098;-78
2023/12/02 13:14:46;;;;;;;23.55;4.68;;;21.20;1.00;;;;;;5008170;28;20050;-77
2023/12/02 13:17:14;;;;;;;27.27;5.45;;;21.00;1.00;;;;;;5017413;28;20049;-77
2023/12/02 13:19:44;;;;;;;20.38;4.45;;;21.00;1.00;;;;;;5020966;28;20263;-78
2023/12/02 13:22:13;;;;;;;21.80;4.03;;;20.90;1.00;;;;;;5006814;28;20121;-76
2023/12/02 13:24:45;;;;;;;22.50;5.45;;;20.80;1.00;;;;;;4998353;28;20042;-76